Terminal Aerodrome Forecast
Issued by NWS Sterling, VA

Current Version | Previous Version | Graphics & Text | Print | Product List | Glossary On
Versions: 1 2 3 4 5 6 7 8 9 10 11 12 13 14 15 16 17 18 19 20 21 22 23 24 25 26 27 28 29
000
FTUS41 KLWX 021740
TAFIAD
TAF
KIAD 021740Z 0218/0324 35007KT P6SM BKN050 OVC100
     FM030800 VRB03KT 5SM BR SCT008 BKN020
     FM031300 04004KT P6SM SCT015 OVC035
     FM031600 06004KT P6SM -SHRA SCT015 OVC035
     FM032200 11004KT P6SM OVC035=

USA.gov is the U.S. government's official web portal to all federal, state and local government web resources and services.